KGLS/GLS METAR and TAF weather

Enter ICAO airport designator
Station Type Date Time Source
KGLS METAR 2019/02/23 00:52 UTC NOAA

KGLS 230052Z AUTO 14007KT 1/2SM FG VV003 19/18 A2988 RMK AO2 SLP118 T01890183


Station Type Date Time Source
KGLS Decoded METAR 2019/02/23 00:52 UTC NOAA

SCHOLES FIELD, TX, United States (KGLS) 29-16N 094-52W 6M
Feb 22, 2019 - 07:52 PM EST / 2019.02.23 0052 UTC
Wind: from the SE (140 degrees) at 8 MPH (7 KT):0
Visibility: 1/2 mile(s):0
Sky conditions: obscured
Weather: fog
Temperature: 66.0 F (18.9 C)
Dew Point: 64.9 F (18.3 C)
Relative Humidity: 96%
Pressure (altimeter): 29.88 in. Hg (1011 hPa)
ob: KGLS 230052Z AUTO 14007KT 1/2SM FG VV003 19/18 A2988 RMK AO2 SLP118 T01890183
cycle: 1

Station Type Date Time Source
KGLS TAF 2019/02/22 22:16 UTC NOAA

TAF
AMD KGLS 222209Z 2222/2318 13010KT 1/4SM FG VV002
FM231400 16012KT 2SM BR VCSH OVC004
FM231600 17010KT 6SM SHRA BR OVC004 PROB30 2316/2318 TSRA OVC003CB


Example: see airport list